createdAt,value
2022-08-27T00:02:18.106Z,7.53
2022-08-27T00:04:47.785Z,7.88
2022-08-27T00:07:16.843Z,6.57
2022-08-27T00:09:44.742Z,9.02
2022-08-27T00:12:12.829Z,8.80
2022-08-27T00:14:40.626Z,8.93
2022-08-27T00:17:08.542Z,9.80
2022-08-27T00:19:37.406Z,8.98
2022-08-27T00:22:07.056Z,10.23
2022-08-27T00:24:35.742Z,7.63
2022-08-27T00:27:06.590Z,8.77
2022-08-27T00:29:34.314Z,9.17
2022-08-27T00:32:03.619Z,8.35
2022-08-27T00:34:34.212Z,7.78
2022-08-27T00:37:03.903Z,8.50
2022-08-27T00:39:31.873Z,6.93
2022-08-27T00:42:01.456Z,9.00
2022-08-27T00:44:32.459Z,8.15
2022-08-27T00:47:06.465Z,7.55
2022-08-27T00:49:52.175Z,8.23
2022-08-27T00:52:38.805Z,6.72
2022-08-27T00:55:18.653Z,7.93
2022-08-27T00:57:54.521Z,7.32
2022-08-27T01:00:23.126Z,8.57
2022-08-27T01:02:50.778Z,8.30
2022-08-27T01:05:23.652Z,7.20
2022-08-27T01:07:55.069Z,9.00
2022-08-27T01:10:25.851Z,8.07
2022-08-27T01:12:55.305Z,7.43
2022-08-27T01:15:27.343Z,9.63
2022-08-27T01:17:59.542Z,5.88
2022-08-27T01:20:43.498Z,9.93
2022-08-27T01:23:38.205Z,6.90
2022-08-27T01:26:08.797Z,9.55
2022-08-27T01:28:37.919Z,6.82
2022-08-27T01:31:11.569Z,7.20
2022-08-27T01:33:40.310Z,8.43
2022-08-27T01:36:08.535Z,8.00
2022-08-27T01:38:35.909Z,7.53
2022-08-27T01:41:05.749Z,7.57
2022-08-27T01:43:34.276Z,7.85
2022-08-27T01:46:01.987Z,8.32
2022-08-27T01:48:30.392Z,7.03
2022-08-27T01:50:57.843Z,7.57
2022-08-27T01:53:27.243Z,5.53
2022-08-27T01:55:56.703Z,8.23
2022-08-27T01:58:29.232Z,7.63
2022-08-27T02:01:06.068Z,9.65
2022-08-27T02:03:37.282Z,8.98
2022-08-27T02:06:09.655Z,7.78
2022-08-27T02:08:37.756Z,6.30
2022-08-27T02:11:08.660Z,6.90
2022-08-27T02:13:36.523Z,8.45
2022-08-27T02:16:04.467Z,7.00
2022-08-27T02:18:31.900Z,5.53
2022-08-27T02:21:02.514Z,6.40
2022-08-27T02:23:30.119Z,8.07
2022-08-27T02:25:57.781Z,8.55
2022-08-27T02:28:25.409Z,9.57
2022-08-27T02:30:52.698Z,7.32
2022-08-27T02:33:19.852Z,6.15
2022-08-27T02:35:47.650Z,7.22
2022-08-27T02:38:15.053Z,6.30
2022-08-27T02:40:42.531Z,7.18
2022-08-27T02:43:15.600Z,6.50
2022-08-27T02:45:44.477Z,8.13
2022-08-27T02:48:12.442Z,7.93
2022-08-27T02:50:40.068Z,7.72
2022-08-27T02:53:08.198Z,9.65
2022-08-27T02:55:37.140Z,9.87
2022-08-27T02:58:05.474Z,7.03
2022-08-27T03:00:32.816Z,8.40
2022-08-27T03:03:02.004Z,6.70
2022-08-27T03:08:00.134Z,5.25
2022-08-27T03:10:27.464Z,7.20
2022-08-27T03:12:55.006Z,7.35
2022-08-27T03:15:23.005Z,8.07
2022-08-27T03:18:09.769Z,9.05
2022-08-27T03:20:44.602Z,8.17
2022-08-27T03:23:12.787Z,7.60
2022-08-27T03:25:44.238Z,7.97
2022-08-27T03:28:22.543Z,7.03
2022-08-27T03:30:54.416Z,7.47
2022-08-27T03:33:22.762Z,6.13
2022-08-27T03:35:52.245Z,5.88
2022-08-27T03:38:22.829Z,6.95
2022-08-27T03:40:51.956Z,6.78
2022-08-27T03:43:22.460Z,7.05
2022-08-27T03:46:01.721Z,7.95
2022-08-27T03:48:34.989Z,8.68
2022-08-27T03:51:10.980Z,6.57
2022-08-27T03:53:40.924Z,6.53
2022-08-27T03:56:08.866Z,9.75
2022-08-27T03:58:38.977Z,9.35
2022-08-27T04:01:08.308Z,8.43
2022-08-27T04:03:38.025Z,7.25
2022-08-27T04:06:06.152Z,7.30
2022-08-27T04:08:34.205Z,12.32
2022-08-27T04:11:05.844Z,11.18
2022-08-27T04:13:34.586Z,8.23
2022-08-27T04:16:02.428Z,8.38
2022-08-27T04:18:29.769Z,7.30
2022-08-27T04:20:58.339Z,9.38
2022-08-27T04:23:25.710Z,10.68
2022-08-27T04:25:53.105Z,7.13
2022-08-27T04:28:21.729Z,12.18
2022-08-27T04:30:49.903Z,8.77
2022-08-27T04:33:17.924Z,8.52
2022-08-27T04:35:45.495Z,11.10
2022-08-27T04:38:13.030Z,10.63
2022-08-27T04:40:59.393Z,10.10
2022-08-27T04:43:28.942Z,13.05
2022-08-27T04:48:25.889Z,7.65
2022-08-27T04:53:20.915Z,6.57
2022-08-27T04:55:53.757Z,8.13
2022-08-27T04:58:23.399Z,11.05
2022-08-27T05:00:55.143Z,8.45
2022-08-27T05:03:24.455Z,6.72
2022-08-27T05:05:53.486Z,7.68
2022-08-27T05:08:21.080Z,9.98
2022-08-27T05:10:52.129Z,7.78
2022-08-27T05:13:22.716Z,9.73
2022-08-27T05:15:57.317Z,9.05
2022-08-27T05:18:28.307Z,8.93
2022-08-27T05:20:57.631Z,10.20
2022-08-27T05:25:54.137Z,10.35
2022-08-27T05:28:27.846Z,8.70
2022-08-27T05:31:05.414Z,8.80
2022-08-27T05:33:33.877Z,10.13
2022-08-27T05:36:02.058Z,10.73
2022-08-27T05:38:31.242Z,9.60
2022-08-27T05:41:12.421Z,11.60
2022-08-27T05:43:42.470Z,7.75
2022-08-27T05:46:17.252Z,9.40
2022-08-27T05:48:46.544Z,12.95
2022-08-27T05:51:25.587Z,9.50
2022-08-27T05:54:08.598Z,11.02
2022-08-27T05:56:38.773Z,12.57
2022-08-27T05:59:26.304Z,12.68
2022-08-27T06:01:56.879Z,11.63
2022-08-27T06:04:26.241Z,12.32
2022-08-27T06:06:55.086Z,12.73
2022-08-27T06:09:27.229Z,12.15
2022-08-27T06:11:57.032Z,16.48
2022-08-27T06:14:24.707Z,11.75
2022-08-27T06:16:52.543Z,15.75
2022-08-27T06:19:20.376Z,16.70
2022-08-27T06:22:00.864Z,14.35
2022-08-27T06:24:36.478Z,13.45
2022-08-27T06:27:03.837Z,15.60
2022-08-27T06:29:31.605Z,14.25
2022-08-27T06:31:59.765Z,17.53
2022-08-27T06:34:27.349Z,19.88
2022-08-27T06:36:55.554Z,16.58
2022-08-27T06:39:23.051Z,15.80
2022-08-27T06:42:03.422Z,17.92
2022-08-27T06:44:34.455Z,18.33
2022-08-27T06:47:04.013Z,18.90
2022-08-27T06:54:46.128Z,22.10
2022-08-27T06:57:13.473Z,23.70
2022-08-27T06:59:41.296Z,23.30
2022-08-27T07:02:11.431Z,21.00
2022-08-27T07:04:41.478Z,24.63
2022-08-27T07:07:34.383Z,25.38
2022-08-27T07:10:07.777Z,24.97
2022-08-27T07:12:35.074Z,22.42
2022-08-27T07:15:04.438Z,26.90
2022-08-27T07:17:31.983Z,21.50
2022-08-27T07:20:02.176Z,24.10
2022-08-27T07:22:29.797Z,25.45
2022-08-27T07:24:57.299Z,25.95
2022-08-27T07:27:24.642Z,23.42
2022-08-27T07:29:56.222Z,24.63
2022-08-27T07:32:23.473Z,25.10
2022-08-27T07:34:58.096Z,22.23
2022-08-27T07:37:26.921Z,20.48
2022-08-27T07:40:07.293Z,24.27
2022-08-27T07:42:53.332Z,24.55
2022-08-27T07:45:24.401Z,22.65
2022-08-27T07:47:57.836Z,23.27
2022-08-27T07:50:27.668Z,22.00
2022-08-27T07:52:58.356Z,21.38
2022-08-27T07:55:26.498Z,22.17
2022-08-27T07:57:54.759Z,20.27
2022-08-27T08:00:22.051Z,20.25
2022-08-27T08:02:49.941Z,21.30
2022-08-27T08:05:17.547Z,20.02
2022-08-27T08:07:45.303Z,22.00
2022-08-27T08:10:13.452Z,20.60
2022-08-27T08:12:41.333Z,21.00
2022-08-27T08:15:11.973Z,20.50
2022-08-27T08:17:39.479Z,21.40
2022-08-27T08:20:31.281Z,18.48
2022-08-27T08:23:00.125Z,20.83
2022-08-27T08:25:27.295Z,20.73
2022-08-27T08:27:57.846Z,19.58
2022-08-27T08:30:28.435Z,21.60
2022-08-27T08:33:01.917Z,20.98
2022-08-27T08:35:34.911Z,20.65
2022-08-27T08:38:08.935Z,21.95
2022-08-27T08:40:44.463Z,20.33
2022-08-27T08:43:41.945Z,22.27
2022-08-27T08:46:24.996Z,19.73
2022-08-27T08:48:59.500Z,20.77
2022-08-27T08:51:42.301Z,22.55
2022-08-27T08:54:23.271Z,22.45
2022-08-27T08:57:10.802Z,21.15
2022-08-27T08:59:48.036Z,20.52
2022-08-27T09:02:16.888Z,21.77
2022-08-27T09:04:44.918Z,23.80
2022-08-27T09:07:35.513Z,22.65
2022-08-27T09:10:18.729Z,19.33
2022-08-27T09:12:46.314Z,19.45
2022-08-27T09:15:21.114Z,19.42
2022-08-27T09:17:49.037Z,19.98
2022-08-27T09:20:21.484Z,19.90
2022-08-27T09:23:33.872Z,17.88
2022-08-27T09:26:01.374Z,20.20
2022-08-27T09:28:49.162Z,20.25
2022-08-27T09:31:20.890Z,21.00
2022-08-27T09:33:55.774Z,21.88
2022-08-27T09:36:25.165Z,21.20
2022-08-27T09:38:58.201Z,19.23
2022-08-27T09:41:42.971Z,20.77
2022-08-27T09:44:14.811Z,20.45
2022-08-27T09:47:00.282Z,21.77
2022-08-27T09:49:28.374Z,18.90
2022-08-27T09:51:57.448Z,19.80
2022-08-27T09:54:32.848Z,19.90
2022-08-27T09:57:01.169Z,21.20
2022-08-27T09:59:37.916Z,22.23
2022-08-27T10:02:18.881Z,21.17
2022-08-27T10:05:01.116Z,21.17
2022-08-27T10:07:56.878Z,22.15
2022-08-27T10:10:43.698Z,20.92
2022-08-27T10:13:33.374Z,22.35
2022-08-27T10:16:47.251Z,21.77
2022-08-27T10:20:30.266Z,23.35
2022-08-27T10:23:42.508Z,22.67
2022-08-27T10:26:18.684Z,20.52
2022-08-27T10:29:36.069Z,21.15
2022-08-27T10:32:44.052Z,19.70
2022-08-27T10:35:27.539Z,27.50
2022-08-27T10:38:33.084Z,17.48
2022-08-27T10:41:17.125Z,19.27
2022-08-27T10:44:10.032Z,17.48
2022-08-27T10:46:50.236Z,17.65
2022-08-27T10:49:31.180Z,18.48
2022-08-27T10:52:18.892Z,16.83
2022-08-27T10:55:16.430Z,14.20
2022-08-27T10:58:34.866Z,16.92
2022-08-27T11:01:33.279Z,14.10
2022-08-27T11:04:18.709Z,16.48
2022-08-27T11:07:03.920Z,14.25
2022-08-27T11:10:00.204Z,14.85
2022-08-27T11:12:39.164Z,18.35
2022-08-27T11:15:28.155Z,16.27
2022-08-27T11:18:42.367Z,15.40
2022-08-27T11:21:27.802Z,16.10
2022-08-27T11:24:22.031Z,20.30
2022-08-27T11:26:56.413Z,17.25
2022-08-27T11:29:39.037Z,16.77
2022-08-27T11:32:32.695Z,16.35
2022-08-27T11:35:07.449Z,17.00
2022-08-27T11:37:43.368Z,19.33
2022-08-27T11:40:38.370Z,15.20
2022-08-27T11:43:09.528Z,12.68
2022-08-27T11:45:51.336Z,10.45
2022-08-27T11:48:27.543Z,9.27
2022-08-27T11:51:06.408Z,7.72
2022-08-27T11:53:52.564Z,7.63
2022-08-27T11:56:39.791Z,8.15
2022-08-27T11:59:21.333Z,8.35
2022-08-27T12:01:52.439Z,8.02
2022-08-27T12:04:30.673Z,7.40
2022-08-27T12:07:17.379Z,7.07
2022-08-27T12:09:53.776Z,7.40
2022-08-27T12:12:49.708Z,8.63
2022-08-27T12:15:33.705Z,6.53
2022-08-27T12:18:37.094Z,5.00
2022-08-27T12:21:30.542Z,6.80
2022-08-27T12:24:16.624Z,5.38
2022-08-27T12:27:00.549Z,4.22
2022-08-27T12:29:43.820Z,5.95
2022-08-27T12:32:27.258Z,5.55
2022-08-27T12:35:19.631Z,6.18
2022-08-27T12:38:19.404Z,4.45
2022-08-27T12:40:54.483Z,5.28
2022-08-27T12:43:29.760Z,4.60
2022-08-27T12:46:02.478Z,6.32
2022-08-27T12:48:39.538Z,5.65
2022-08-27T12:51:34.735Z,4.25
2022-08-27T12:54:45.946Z,5.80
2022-08-27T12:57:45.958Z,5.93
2022-08-27T13:00:18.904Z,5.03
2022-08-27T13:02:46.442Z,5.28
2022-08-27T13:05:19.199Z,5.10
2022-08-27T13:07:49.066Z,6.55
2022-08-27T13:13:17.883Z,7.07
2022-08-27T13:15:58.581Z,4.70
2022-08-27T13:18:29.986Z,3.75
2022-08-27T13:21:19.720Z,3.78
2022-08-27T13:24:02.744Z,4.53
2022-08-27T13:26:34.568Z,6.03
2022-08-27T13:29:04.585Z,5.18
2022-08-27T13:31:33.116Z,7.10
2022-08-27T13:34:02.556Z,6.75
2022-08-27T13:36:47.416Z,5.25
2022-08-27T13:39:14.768Z,5.13
2022-08-27T13:41:42.577Z,6.53
2022-08-27T13:47:16.376Z,4.50
2022-08-27T13:49:46.360Z,4.50
2022-08-27T13:55:18.185Z,4.90
2022-08-27T13:57:50.040Z,5.93
2022-08-27T14:00:32.317Z,4.00
2022-08-27T14:03:02.551Z,6.88
2022-08-27T14:05:34.035Z,5.32
2022-08-27T14:08:18.054Z,8.43
2022-08-27T14:11:01.149Z,6.22
2022-08-27T14:13:30.751Z,5.60
2022-08-27T14:16:01.240Z,9.52
2022-08-27T14:18:57.374Z,5.60
2022-08-27T14:21:22.853Z,6.65
2022-08-27T14:23:50.518Z,5.57
2022-08-27T14:26:18.045Z,8.05
2022-08-27T14:28:46.675Z,5.88
2022-08-27T14:31:14.772Z,5.93
2022-08-27T14:33:42.509Z,6.05
2022-08-27T14:36:10.963Z,5.90
2022-08-27T14:38:43.183Z,6.28
2022-08-27T14:41:11.267Z,7.10
2022-08-27T14:43:38.686Z,6.13
2022-08-27T14:46:08.446Z,8.35
2022-08-27T14:48:37.027Z,7.22
2022-08-27T14:51:13.905Z,5.88
2022-08-27T14:53:41.245Z,8.25
2022-08-27T14:56:08.422Z,8.35
2022-08-27T14:58:35.754Z,7.20
2022-08-27T15:01:04.269Z,9.23
2022-08-27T15:03:40.533Z,8.57
2022-08-27T15:06:07.729Z,7.20
2022-08-27T15:08:36.293Z,8.00
2022-08-27T15:11:04.079Z,7.30
2022-08-27T15:13:32.237Z,6.00
2022-08-27T15:15:59.395Z,8.88
2022-08-27T15:18:27.906Z,8.32
2022-08-27T15:20:55.140Z,11.07
2022-08-27T15:23:22.503Z,7.38
2022-08-27T15:25:49.831Z,8.48
2022-08-27T15:28:17.497Z,7.95
2022-08-27T15:30:44.984Z,5.15
2022-08-27T15:33:12.309Z,6.32
2022-08-27T15:35:39.495Z,8.02
2022-08-27T15:38:06.945Z,7.63
2022-08-27T15:40:36.750Z,7.03
2022-08-27T15:43:07.461Z,6.80
2022-08-27T15:45:35.736Z,8.40
2022-08-27T15:48:03.244Z,8.63
2022-08-27T15:50:31.607Z,5.90
2022-08-27T15:53:04.187Z,7.37
2022-08-27T15:55:36.622Z,10.95
2022-08-27T15:58:04.855Z,6.90
2022-08-27T16:00:33.855Z,6.72
2022-08-27T16:03:04.223Z,8.93
2022-08-27T16:05:36.178Z,6.43
2022-08-27T16:08:04.767Z,6.35
2022-08-27T16:10:32.275Z,7.63
2022-08-27T16:12:59.984Z,6.82
2022-08-27T16:15:28.406Z,7.53
2022-08-27T16:18:00.607Z,7.00
2022-08-27T16:20:28.718Z,7.18
2022-08-27T16:22:56.144Z,7.75
2022-08-27T16:25:23.695Z,7.00
2022-08-27T16:27:52.441Z,8.95
2022-08-27T16:30:22.460Z,8.80
2022-08-27T16:32:52.802Z,11.48
2022-08-27T16:35:21.420Z,8.75
2022-08-27T16:37:48.691Z,11.63
2022-08-27T16:40:16.325Z,9.82
2022-08-27T16:42:48.986Z,8.95
2022-08-27T16:45:18.996Z,11.45
2022-08-27T16:48:06.199Z,13.68
2022-08-27T16:50:34.857Z,12.13
2022-08-27T16:53:15.208Z,13.75
2022-08-27T16:56:02.087Z,10.00
2022-08-27T16:58:31.644Z,9.38
2022-08-27T17:01:05.395Z,11.85
2022-08-27T17:04:07.689Z,10.63
2022-08-27T17:06:32.708Z,11.52
2022-08-27T17:08:59.854Z,11.60
2022-08-27T17:11:29.340Z,8.18
2022-08-27T17:14:00.082Z,9.35
2022-08-27T17:16:33.655Z,9.55
2022-08-27T17:19:05.002Z,11.43
2022-08-27T17:21:34.860Z,12.23
2022-08-27T17:24:02.778Z,10.32
2022-08-27T17:26:35.020Z,9.98
2022-08-27T17:29:02.504Z,10.75
2022-08-27T17:31:38.624Z,12.70
2022-08-27T17:34:14.802Z,10.50
2022-08-27T17:36:44.298Z,9.45
2022-08-27T17:39:13.608Z,11.13
2022-08-27T17:41:47.994Z,9.32
2022-08-27T17:44:35.767Z,10.07
2022-08-27T17:47:08.464Z,9.43
2022-08-27T17:49:36.987Z,10.85
2022-08-27T17:52:12.489Z,11.70
2022-08-27T17:54:48.890Z,12.00
2022-08-27T17:57:25.835Z,12.57
2022-08-27T17:59:54.510Z,10.70
2022-08-27T18:02:33.302Z,12.95
2022-08-27T18:05:01.022Z,11.63
2022-08-27T18:07:28.861Z,13.55
2022-08-27T18:09:56.241Z,11.82
2022-08-27T18:12:26.497Z,12.55
2022-08-27T18:15:33.604Z,13.88
2022-08-27T18:18:05.511Z,11.75
2022-08-27T18:20:34.766Z,9.93
2022-08-27T18:23:04.348Z,12.07
2022-08-27T18:25:38.430Z,13.20
2022-08-27T18:28:09.277Z,16.60
2022-08-27T18:30:39.664Z,12.50
2022-08-27T18:33:09.397Z,15.57
2022-08-27T18:35:38.140Z,11.25
2022-08-27T18:38:06.883Z,11.93
2022-08-27T18:40:45.580Z,14.18
2022-08-27T18:43:16.036Z,13.23
2022-08-27T18:46:04.724Z,12.07
2022-08-27T18:48:33.294Z,13.23
2022-08-27T18:51:04.099Z,12.95
2022-08-27T18:53:35.046Z,14.77
2022-08-27T18:56:04.643Z,14.00
2022-08-27T18:58:32.073Z,15.55
2022-08-27T19:01:24.985Z,16.15
2022-08-27T19:03:55.168Z,15.70
2022-08-27T19:06:24.143Z,15.20
2022-08-27T19:08:53.018Z,13.15
2022-08-27T19:11:20.937Z,13.85
2022-08-27T19:13:50.765Z,13.90
2022-08-27T19:16:45.325Z,12.65
2022-08-27T19:19:18.953Z,11.95
2022-08-27T19:21:51.193Z,14.52
2022-08-27T19:24:21.667Z,14.88
2022-08-27T19:26:57.433Z,14.95
2022-08-27T19:29:26.000Z,13.85
2022-08-27T19:31:56.881Z,14.70
2022-08-27T19:34:27.254Z,14.77
2022-08-27T19:37:02.396Z,12.95
2022-08-27T19:39:38.952Z,16.20
2022-08-27T19:42:22.490Z,16.00
2022-08-27T19:44:50.632Z,12.60
2022-08-27T19:47:30.575Z,13.48
2022-08-27T19:50:37.419Z,14.18
2022-08-27T19:53:19.498Z,15.57
2022-08-27T19:55:47.178Z,15.30
2022-08-27T19:58:17.038Z,13.50
2022-08-27T20:00:45.725Z,19.70
2022-08-27T20:03:17.537Z,14.82
2022-08-27T20:09:15.742Z,15.63
2022-08-27T20:11:47.507Z,17.13
2022-08-27T20:14:23.611Z,16.65
2022-08-27T20:16:55.154Z,15.50
2022-08-27T20:19:25.926Z,16.83
2022-08-27T20:22:03.164Z,14.55
2022-08-27T20:24:33.218Z,16.25
2022-08-27T20:27:10.741Z,15.55
2022-08-27T20:29:43.802Z,17.42
2022-08-27T20:32:24.788Z,15.95
2022-08-27T20:34:57.746Z,16.70
2022-08-27T20:37:25.442Z,17.50
2022-08-27T20:39:55.225Z,15.10
2022-08-27T20:42:27.593Z,14.63
2022-08-27T20:44:57.782Z,16.83
2022-08-27T20:47:28.275Z,17.27
2022-08-27T20:50:04.163Z,17.63
2022-08-27T20:52:32.646Z,16.63
2022-08-27T20:55:07.594Z,17.90
2022-08-27T20:58:11.862Z,15.13
2022-08-27T21:01:07.827Z,17.00
2022-08-27T21:03:38.069Z,17.40
2022-08-27T21:06:09.260Z,15.95
2022-08-27T21:08:38.998Z,15.38
2022-08-27T21:11:16.310Z,13.50
2022-08-27T21:13:56.174Z,12.15
2022-08-27T21:16:32.428Z,14.82
2022-08-27T21:19:02.695Z,12.32
2022-08-27T21:21:30.231Z,10.25
2022-08-27T21:24:03.205Z,8.15
2022-08-27T21:26:30.511Z,10.02
2022-08-27T21:29:06.360Z,8.35
2022-08-27T21:34:33.301Z,7.85
2022-08-27T21:37:09.982Z,9.40
2022-08-27T21:39:42.209Z,11.00
2022-08-27T21:42:34.334Z,11.77
2022-08-27T21:45:10.023Z,11.15
2022-08-27T21:47:38.231Z,11.35
2022-08-27T21:50:10.007Z,9.70
2022-08-27T21:52:38.945Z,11.27
2022-08-27T21:55:13.100Z,9.55
2022-08-27T21:57:42.842Z,11.40
2022-08-27T22:00:43.118Z,11.85
2022-08-27T22:03:15.052Z,10.45
2022-08-27T22:05:48.908Z,11.98
2022-08-27T22:08:19.498Z,10.18
2022-08-27T22:10:56.773Z,10.35
2022-08-27T22:13:27.345Z,10.15
2022-08-27T22:15:57.618Z,13.05
2022-08-27T22:18:30.710Z,9.70
2022-08-27T22:21:01.612Z,9.32
2022-08-27T22:23:29.380Z,9.02
2022-08-27T22:25:59.977Z,9.55
2022-08-27T22:28:27.468Z,9.05
2022-08-27T22:30:54.744Z,9.63
2022-08-27T22:36:23.683Z,8.70
2022-08-27T22:38:56.224Z,9.33
2022-08-27T22:41:51.149Z,9.80
2022-08-27T22:44:22.796Z,9.82
2022-08-27T22:46:52.900Z,8.45
2022-08-27T22:49:26.527Z,8.38
2022-08-27T22:52:00.481Z,10.13
2022-08-27T22:54:45.711Z,11.07
2022-08-27T22:57:44.313Z,10.18
2022-08-27T23:03:20.401Z,11.88
2022-08-27T23:05:48.017Z,9.88
2022-08-27T23:08:17.805Z,8.25
2022-08-27T23:10:57.893Z,9.82
2022-08-27T23:13:27.162Z,9.57
2022-08-27T23:16:06.245Z,10.15
2022-08-27T23:19:00.750Z,8.60
2022-08-27T23:22:02.592Z,11.15
2022-08-27T23:24:55.998Z,10.43
2022-08-27T23:28:01.965Z,8.10
2022-08-27T23:30:40.865Z,9.90
2022-08-27T23:33:24.548Z,11.07
2022-08-27T23:35:56.107Z,7.93
2022-08-27T23:38:25.050Z,10.60
2022-08-27T23:44:05.577Z,10.77
2022-08-27T23:46:33.420Z,9.38
2022-08-27T23:49:01.886Z,10.30
2022-08-27T23:51:34.891Z,11.00
2022-08-27T23:54:09.039Z,11.00
2022-08-27T23:56:37.494Z,10.02
2022-08-27T23:59:05.952Z,9.67
